Victor, West Virginia
Current Conditions -  °F | °C
As of 4:51 AM on Friday 31 Oct 2014 (Local Time) from KBKW Reporting Station
Clear Clear  
Wind Chill: 30°   Ceiling: Unl
Heat Index: 36°   Visibility: 10mi
Dew Point: 30°   Wind: 7mph
Humidity: 79%   Direction: 150°SSE
Pressure: 29.96"   Gusts: NA
Location:  38.13°N, 81.08°W
Report Text: KBKW 310851Z AUTO 15006KT 10SM CLR 02/M01 A2996 RMK AO2 SLP158 T00221011 58011 TSNO
Loading
Personal Weather Stations






























Interactive Weather Map
Tropical Storm Tracking
New forecast layout! Learn more

10-Day Weather Forecast

Advertisements
Track Severe Weather on mobile